Time;durP1;ratioP1;P1;durP2;ratioP2;P2;SDS_P1;SDS_P2;PMS_P1;PMS_P2;Temp;Humidity;BMP_temperature;BMP_pressure;BME280_temperature;BME280_humidity;BME280_pressure;Samples;Min_cycle;Max_cycle;Signal;HPM_P1;HPM_P2
2023/01/23 00:01:57;;;;;;;2.70;2.05;;;;;;;;;;10469837;28;20075;-87
2023/01/23 00:07:10;;;;;;;3.00;2.22;;;;;;;;;;10447207;28;20112;-87
2023/01/23 00:12:18;;;;;;;3.30;2.58;;;;;;;;;;10454884;28;20079;-86
2023/01/23 00:17:23;;;;;;;3.40;2.20;;;;;;;;;;10476619;28;20131;-88
2023/01/23 00:22:28;;;;;;;2.80;2.23;;;;;;;;;;10483587;28;20438;-88
2023/01/23 00:27:33;;;;;;;2.90;2.10;;;;;;;;;;10481025;28;20085;-89
2023/01/23 00:32:39;;;;;;;2.22;1.85;;;;;;;;;;10464872;28;20052;-87
2023/01/23 00:37:47;;;;;;;3.30;2.25;;;;;;;;;;10463671;28;20511;-89
2023/01/23 00:42:50;;;;;;;3.08;1.98;;;;;;;;;;10463962;28;20055;-88
2023/01/23 00:47:54;;;;;;;2.97;2.03;;;;;;;;;;10443678;28;20080;-87
2023/01/23 00:53:04;;;;;;;2.83;2.40;;;;;;;;;;10446470;28;20271;-86
2023/01/23 00:58:14;;;;;;;3.70;2.58;;;;;;;;;;10452755;28;20051;-87
2023/01/23 01:03:19;;;;;;;3.67;2.13;;;;;;;;;;10453664;28;20041;-86
2023/01/23 01:08:26;;;;;;;2.88;2.08;;;;;;;;;;10447997;28;20427;-87
2023/01/23 01:13:41;;;;;;;2.45;2.05;;;;;;;;;;10447130;28;20068;-86
2023/01/23 01:18:45;;;;;;;3.00;2.13;;;;;;;;;;10462571;28;20148;-86
2023/01/23 01:23:51;;;;;;;3.55;2.90;;;;;;;;;;10454937;28;20048;-86
2023/01/23 01:28:55;;;;;;;2.90;2.20;;;;;;;;;;10468479;28;20146;-87
2023/01/23 01:33:59;;;;;;;2.88;2.17;;;;;;;;;;10451683;28;20052;-86
2023/01/23 01:39:04;;;;;;;3.55;2.60;;;;;;;;;;10455924;28;20048;-86
2023/01/23 01:44:14;;;;;;;3.42;2.25;;;;;;;;;;10452514;28;20128;-86
2023/01/23 01:49:22;;;;;;;4.18;2.45;;;;;;;;;;10440703;28;20058;-86
2023/01/23 01:54:33;;;;;;;2.92;2.17;;;;;;;;;;10449006;28;20064;-85
2023/01/23 01:59:46;;;;;;;3.40;2.53;;;;;;;;;;10462551;28;20515;-86
2023/01/23 02:04:54;;;;;;;3.63;2.35;;;;;;;;;;10447244;28;20060;-86
2023/01/23 02:09:59;;;;;;;2.85;2.20;;;;;;;;;;10458980;28;20136;-87
2023/01/23 02:15:05;;;;;;;2.42;2.10;;;;;;;;;;10461696;28;20033;-87
2023/01/23 02:20:12;;;;;;;;;;;;;;;;;;10445670;28;20045;-87
2023/01/23 02:25:26;;;;;;;3.15;2.22;;;;;;;;;;10451980;28;19952;-87
2023/01/23 02:30:32;;;;;;;3.15;2.65;;;;;;;;;;10455328;28;20797;-86
2023/01/23 02:35:38;;;;;;;3.42;2.55;;;;;;;;;;10456931;28;20048;-87
2023/01/23 02:40:45;;;;;;;3.47;2.45;;;;;;;;;;10459066;28;20048;-88
2023/01/23 02:45:58;;;;;;;3.05;2.38;;;;;;;;;;10460149;28;20102;-88
2023/01/23 02:51:02;;;;;;;3.67;2.80;;;;;;;;;;10454608;28;20777;-87
2023/01/23 02:56:07;;;;;;;4.00;2.83;;;;;;;;;;10443372;28;20139;-88
2023/01/23 03:01:13;;;;;;;3.47;2.58;;;;;;;;;;10451657;28;20052;-88
2023/01/23 03:06:17;;;;;;;3.92;2.83;;;;;;;;;;10460091;28;20056;-88
2023/01/23 03:11:26;;;;;;;3.28;2.42;;;;;;;;;;10469234;28;20568;-87
2023/01/23 03:16:33;;;;;;;3.90;2.72;;;;;;;;;;10455269;28;20048;-87
2023/01/23 03:21:41;;;;;;;3.47;2.45;;;;;;;;;;10446417;28;20151;-88
2023/01/23 03:26:51;;;;;;;3.22;2.40;;;;;;;;;;10470338;28;20075;-88
2023/01/23 03:32:01;;;;;;;3.58;2.40;;;;;;;;;;10438453;28;20055;-86
2023/01/23 03:37:06;;;;;;;3.38;2.22;;;;;;;;;;10466543;28;20049;-86
2023/01/23 03:42:14;;;;;;;4.38;2.85;;;;;;;;;;10469478;28;20078;-87
2023/01/23 03:47:25;;;;;;;3.42;2.33;;;;;;;;;;10452658;28;20040;-88
2023/01/23 03:52:33;;;;;;;3.75;2.60;;;;;;;;;;10458396;28;20531;-88
2023/01/23 03:57:38;;;;;;;3.33;2.17;;;;;;;;;;10456400;28;20557;-87
2023/01/23 04:02:55;;;;;;;3.30;2.40;;;;;;;;;;10454526;28;20044;-86
2023/01/23 04:07:59;;;;;;;3.20;2.30;;;;;;;;;;10444989;28;20059;-87
2023/01/23 04:13:03;;;;;;;3.95;2.88;;;;;;;;;;10452898;28;20105;-86
2023/01/23 04:18:08;;;;;;;5.25;2.53;;;;;;;;;;10465428;28;20048;-88
2023/01/23 04:23:12;;;;;;;4.28;2.72;;;;;;;;;;10465011;28;20060;-87
2023/01/23 04:28:17;;;;;;;3.75;2.65;;;;;;;;;;10467439;28;20071;-87
2023/01/23 04:33:27;;;;;;;3.22;2.42;;;;;;;;;;10449607;28;20040;-88
2023/01/23 04:38:32;;;;;;;3.00;2.53;;;;;;;;;;10464322;28;20061;-89
2023/01/23 04:43:49;;;;;;;2.50;2.10;;;;;;;;;;10451317;28;20064;-88
2023/01/23 04:48:55;;;;;;;3.70;2.50;;;;;;;;;;10451396;28;20044;-87
2023/01/23 04:54:01;;;;;;;2.92;2.05;;;;;;;;;;10462521;28;20742;-87
2023/01/23 04:59:05;;;;;;;3.55;2.55;;;;;;;;;;10464763;28;20040;-87
2023/01/23 05:04:10;;;;;;;4.05;2.70;;;;;;;;;;10469551;28;20086;-87
2023/01/23 05:09:13;;;;;;;4.50;3.13;;;;;;;;;;10472578;28;20128;-88
2023/01/23 05:14:24;;;;;;;3.22;2.22;;;;;;;;;;10453005;28;20045;-87
2023/01/23 05:19:32;;;;;;;4.05;2.75;;;;;;;;;;10462170;28;20044;-89
2023/01/23 05:24:39;;;;;;;3.03;2.50;;;;;;;;;;10453750;28;20040;-87
2023/01/23 05:29:44;;;;;;;2.75;2.03;;;;;;;;;;10458479;28;20418;-87
2023/01/23 05:35:37;;;;;;;2.95;1.92;;;;;;;;;;10449115;28;20053;-87
2023/01/23 05:40:57;;;;;;;3.50;2.40;;;;;;;;;;10436665;28;20608;-86
2023/01/23 05:46:21;;;;;;;3.55;2.60;;;;;;;;;;10466601;28;20119;-89
2023/01/23 05:51:32;;;;;;;3.55;2.50;;;;;;;;;;10462456;28;20114;-86
2023/01/23 05:56:36;;;;;;;2.00;1.80;;;;;;;;;;10447920;28;20456;-88
2023/01/23 06:01:59;;;;;;;3.22;2.30;;;;;;;;;;10465110;28;20094;-88
2023/01/23 06:07:30;;;;;;;2.75;1.85;;;;;;;;;;10470792;28;20436;-87
2023/01/23 06:12:34;;;;;;;2.67;2.33;;;;;;;;;;10446332;28;20616;-89
2023/01/23 06:17:38;;;;;;;2.50;2.00;;;;;;;;;;10450913;28;20072;-91
2023/01/23 06:22:44;;;;;;;3.13;2.42;;;;;;;;;;10457551;28;20453;-87
2023/01/23 06:27:49;;;;;;;2.83;2.20;;;;;;;;;;10456810;28;20068;-87
2023/01/23 06:33:11;;;;;;;2.75;2.20;;;;;;;;;;10466125;28;20083;-90
2023/01/23 06:38:18;;;;;;;3.80;2.55;;;;;;;;;;10450859;28;20047;-87
2023/01/23 06:43:26;;;;;;;2.42;2.08;;;;;;;;;;10458463;28;20154;-86
2023/01/23 06:48:30;;;;;;;2.92;2.25;;;;;;;;;;10461455;28;20041;-86
2023/01/23 06:53:38;;;;;;;3.08;2.25;;;;;;;;;;10461683;28;20445;-90
2023/01/23 06:58:54;;;;;;;3.55;2.42;;;;;;;;;;10490005;28;20507;-91
2023/01/23 07:04:35;;;;;;;3.47;2.13;;;;;;;;;;10463828;28;20040;-91
2023/01/23 07:10:10;;;;;;;2.92;2.17;;;;;;;;;;10438855;28;20052;-91
2023/01/23 07:15:21;;;;;;;3.00;2.42;;;;;;;;;;10460454;28;20076;-91
2023/01/23 07:20:31;;;;;;;2.25;2.03;;;;;;;;;;10471922;28;20044;-88
2023/01/23 07:25:39;;;;;;;2.65;1.88;;;;;;;;;;10482461;28;20136;-87
2023/01/23 07:30:43;;;;;;;2.63;2.00;;;;;;;;;;10456340;28;20052;-87
2023/01/23 07:35:47;;;;;;;2.95;1.95;;;;;;;;;;10478618;28;20044;-87
2023/01/23 07:40:52;;;;;;;2.22;1.67;;;;;;;;;;10465502;28;20071;-87
2023/01/23 07:45:57;;;;;;;2.38;1.95;;;;;;;;;;10468500;28;20159;-87
2023/01/23 07:51:02;;;;;;;2.25;1.70;;;;;;;;;;10485368;28;20059;-90
2023/01/23 07:56:08;;;;;;;2.22;1.85;;;;;;;;;;10469288;28;20041;-87
2023/01/23 08:01:12;;;;;;;2.10;1.70;;;;;;;;;;10460409;28;20049;-88
2023/01/23 08:06:15;;;;;;;2.65;2.22;;;;;;;;;;10455896;28;20131;-88
2023/01/23 08:11:22;;;;;;;2.05;1.85;;;;;;;;;;10454238;28;20048;-89
2023/01/23 08:16:26;;;;;;;3.08;2.28;;;;;;;;;;10457593;28;20045;-88
2023/01/23 08:21:30;;;;;;;2.85;2.10;;;;;;;;;;10461086;28;20072;-88
2023/01/23 08:26:34;;;;;;;3.47;2.17;;;;;;;;;;10461531;28;20499;-88
2023/01/23 08:31:38;;;;;;;2.78;2.00;;;;;;;;;;10452511;28;20045;-89
2023/01/23 08:36:42;;;;;;;2.28;2.03;;;;;;;;;;10442523;28;20079;-89
2023/01/23 08:41:47;;;;;;;4.32;1.77;;;;;;;;;;10444585;28;20072;-89
2023/01/23 08:46:50;;;;;;;3.58;2.28;;;;;;;;;;10469715;28;20114;-88
2023/01/23 08:51:55;;;;;;;3.03;2.33;;;;;;;;;;10459620;28;20052;-87
2023/01/23 08:57:00;;;;;;;2.00;1.80;;;;;;;;;;10466393;28;20048;-89
2023/01/23 09:02:04;;;;;;;3.17;2.30;;;;;;;;;;10466045;28;20140;-89
2023/01/23 09:07:08;;;;;;;2.30;1.95;;;;;;;;;;10469005;28;20048;-88
2023/01/23 09:12:12;;;;;;;2.20;1.92;;;;;;;;;;10455511;28;20041;-89
2023/01/23 09:17:16;;;;;;;3.20;2.47;;;;;;;;;;10454359;28;20549;-88
2023/01/23 09:22:20;;;;;;;2.63;1.90;;;;;;;;;;10468373;28;20152;-89
2023/01/23 09:27:25;;;;;;;2.40;1.90;;;;;;;;;;10449496;28;20044;-90
2023/01/23 09:50:39;;;;;;;2.30;1.70;;;;;;;;;;11477862;22;20037;-84
2023/01/23 09:55:47;;;;;;;1.85;1.63;;;;;;;;;;10383134;28;20049;-82
2023/01/23 10:01:22;;;;;;;1.95;1.75;;;;;;;;;;10365286;22;20055;31
2023/01/23 10:06:29;;;;;;;2.42;1.88;;;;;;;;;;10325049;28;20042;-83
2023/01/23 10:11:52;;;;;;;2.13;1.90;;;;;;;;;;10379934;28;20061;-83
2023/01/23 10:17:13;;;;;;;3.30;2.58;;;;;;;;;;10362086;28;20698;-83
2023/01/23 10:22:33;;;;;;;3.10;2.47;;;;;;;;;;10574241;23;20073;-84
2023/01/23 10:27:42;;;;;;;2.92;2.30;;;;;;;;;;10392203;28;20053;-86
2023/01/23 10:33:09;;;;;;;2.80;2.35;;;;;;;;;;10383834;28;20537;-83
2023/01/23 10:38:26;;;;;;;3.15;2.17;;;;;;;;;;10358843;28;20045;-89
2023/01/23 10:43:29;;;;;;;2.20;1.80;;;;;;;;;;10373815;28;20522;-85
2023/01/23 10:48:46;;;;;;;2.88;2.13;;;;;;;;;;10375256;28;20061;-85
2023/01/23 10:54:06;;;;;;;4.05;3.00;;;;;;;;;;10357688;28;20065;-87
2023/01/23 10:59:20;;;;;;;3.40;2.70;;;;;;;;;;10379625;28;20056;-89
2023/01/23 11:04:38;;;;;;;3.90;2.30;;;;;;;;;;10365152;28;20042;-86
2023/01/23 11:09:53;;;;;;;2.72;2.20;;;;;;;;;;10353012;28;20053;-84
2023/01/23 11:15:16;;;;;;;2.83;2.20;;;;;;;;;;10380244;28;20046;-83
2023/01/23 11:20:27;;;;;;;2.92;2.25;;;;;;;;;;10374405;28;20107;-84
2023/01/23 11:25:35;;;;;;;3.10;2.30;;;;;;;;;;10371478;28;20045;-83
2023/01/23 11:31:03;;;;;;;3.00;2.70;;;;;;;;;;10335641;28;20053;-85
2023/01/23 11:36:36;;;;;;;2.92;2.33;;;;;;;;;;10369682;28;20073;-83
2023/01/23 11:41:41;;;;;;;2.55;2.10;;;;;;;;;;10304324;28;20081;-81
2023/01/23 11:47:07;;;;;;;3.15;2.53;;;;;;;;;;10297242;28;20050;-83
2023/01/23 11:52:24;;;;;;;3.45;2.60;;;;;;;;;;10327184;28;20106;-82
2023/01/23 11:57:53;;;;;;;4.18;2.55;;;;;;;;;;10358811;28;20425;-82
2023/01/23 12:03:25;;;;;;;2.92;2.30;;;;;;;;;;10348559;28;20315;-84
2023/01/23 12:08:49;;;;;;;3.20;2.30;;;;;;;;;;10355544;28;20052;-86
2023/01/23 12:14:15;;;;;;;3.15;2.30;;;;;;;;;;10340313;28;20041;-88
2023/01/23 12:19:23;;;;;;;;;;;;;;;;;;10354768;28;20049;-86
2023/01/23 12:24:51;;;;;;;3.10;2.30;;;;;;;;;;10343222;28;19993;-85
2023/01/23 12:30:37;;;;;;;4.15;2.35;;;;;;;;;;10352464;28;20057;-85
2023/01/23 12:35:53;;;;;;;2.83;2.10;;;;;;;;;;10328080;28;20829;-89
2023/01/23 12:41:15;;;;;;;2.53;2.10;;;;;;;;;;10355839;28;20090;-86
2023/01/23 12:46:36;;;;;;;2.35;1.80;;;;;;;;;;10365265;28;20475;-86
2023/01/23 12:51:45;;;;;;;2.50;2.00;;;;;;;;;;10351889;28;20160;-88
2023/01/23 12:56:51;;;;;;;2.92;1.88;;;;;;;;;;10359302;28;20060;-85
2023/01/23 13:02:11;;;;;;;2.10;1.90;;;;;;;;;;10366721;28;20057;-87
2023/01/23 13:07:41;;;;;;;3.30;2.30;;;;;;;;;;10362392;28;20800;-87
2023/01/23 13:12:45;;;;;;;3.25;2.08;;;;;;;;;;10341961;28;20435;-85
2023/01/23 13:17:50;;;;;;;3.63;2.90;;;;;;;;;;10362010;28;20132;-87
2023/01/23 13:22:55;;;;;;;3.15;2.50;;;;;;;;;;10365514;28;20054;-85
2023/01/23 13:27:58;;;;;;;4.20;2.80;;;;;;;;;;10355619;28;20468;-87
2023/01/23 13:33:52;;;;;;;3.33;2.03;;;;;;;;;;10348365;28;20046;-86
2023/01/23 13:39:23;;;;;;;4.28;2.67;;;;;;;;;;10347477;28;20104;-87
2023/01/23 13:44:30;;;;;;;3.78;3.05;;;;;;;;;;10347370;28;20054;-85
2023/01/23 13:50:01;;;;;;;4.85;3.25;;;;;;;;;;10362723;28;20058;-86
2023/01/23 14:06:41;;;;;;;5.45;3.40;;;;;;;;;;9986097;29;20611;-85
2023/01/23 14:12:01;;;;;;;3.45;2.65;;;;;;;;;;9838731;30;20064;-87
2023/01/23 14:17:20;;;;;;;3.80;2.95;;;;;;;;;;9745905;30;20155;-86
2023/01/23 14:22:37;;;;;;;4.50;3.22;;;;;;;;;;9760091;29;20142;-86
2023/01/23 14:27:42;;;;;;;4.43;2.95;;;;;;;;;;9883733;29;20049;-86
2023/01/23 14:32:55;;;;;;;4.18;2.95;;;;;;;;;;10032484;29;20050;-86
2023/01/23 14:38:02;;;;;;;4.10;2.60;;;;;;;;;;10139280;28;20200;-87
2023/01/23 14:43:08;;;;;;;4.00;2.97;;;;;;;;;;10277756;28;20051;-85
2023/01/23 14:48:19;;;;;;;;;;;;;;;;;;10343841;28;20045;-86
2023/01/23 14:53:22;;;;;;;3.78;2.80;;;;;;;;;;10363794;28;19921;-86
2023/01/23 14:58:28;;;;;;;4.65;2.55;;;;;;;;;;10348146;28;20394;-84
2023/01/23 15:03:39;;;;;;;2.50;2.25;;;;;;;;;;10371873;28;20537;-86
2023/01/23 15:08:54;;;;;;;3.33;2.33;;;;;;;;;;10344177;28;20547;-87
2023/01/23 15:14:01;;;;;;;3.85;2.65;;;;;;;;;;10348973;28;20049;-87
2023/01/23 15:19:07;;;;;;;4.07;2.72;;;;;;;;;;10360865;28;20041;-87
2023/01/23 15:24:26;;;;;;;4.13;2.83;;;;;;;;;;10357378;28;20068;-84
2023/01/23 15:29:38;;;;;;;4.38;2.70;;;;;;;;;;10357117;28;20129;-86
2023/01/23 15:34:53;;;;;;;3.10;2.20;;;;;;;;;;10377320;28;20076;-86
2023/01/23 15:40:01;;;;;;;3.17;2.13;;;;;;;;;;10364536;28;20302;-87
2023/01/23 15:45:14;;;;;;;4.25;2.78;;;;;;;;;;10359240;28;20054;-86
2023/01/23 15:50:36;;;;;;;3.90;2.83;;;;;;;;;;10347972;28;20500;-86
2023/01/23 15:55:40;;;;;;;4.13;2.83;;;;;;;;;;10366716;28;20057;-86
2023/01/23 16:00:44;;;;;;;3.75;2.38;;;;;;;;;;10358756;28;20080;-87
2023/01/23 16:05:49;;;;;;;3.50;2.70;;;;;;;;;;10348265;28;20046;-89
2023/01/23 16:10:52;;;;;;;4.35;2.22;;;;;;;;;;10352159;28;20441;-87
2023/01/23 16:15:57;;;;;;;7.88;4.20;;;;;;;;;;10343710;28;20049;-85
2023/01/23 16:21:01;;;;;;;12.23;6.78;;;;;;;;;;10335164;28;20104;-86
2023/01/23 16:26:16;;;;;;;9.45;4.93;;;;;;;;;;10349344;28;20776;-89
2023/01/23 16:31:22;;;;;;;6.32;3.88;;;;;;;;;;10343274;28;20068;-85
2023/01/23 16:36:25;;;;;;;6.03;3.73;;;;;;;;;;10357383;28;20631;-86
2023/01/23 16:41:31;;;;;;;;;;;;;;;;;;10347505;28;20053;-86
2023/01/23 16:46:40;;;;;;;13.45;8.50;;;;;;;;;;10359408;28;19921;-86
2023/01/23 16:51:47;;;;;;;6.72;4.50;;;;;;;;;;10342127;28;20136;-87
2023/01/23 16:57:06;;;;;;;4.47;3.00;;;;;;;;;;10344311;28;20596;-87
2023/01/23 17:02:20;;;;;;;3.65;2.42;;;;;;;;;;10339376;28;20053;-89
2023/01/23 17:07:23;;;;;;;3.22;2.58;;;;;;;;;;10349639;28;20095;-87
2023/01/23 17:12:31;;;;;;;3.70;2.60;;;;;;;;;;10348969;28;20046;-87
2023/01/23 17:17:37;;;;;;;3.28;2.40;;;;;;;;;;10343541;28;20661;-88
2023/01/23 17:22:42;;;;;;;3.13;2.17;;;;;;;;;;10328356;28;20061;-87
2023/01/23 17:27:46;;;;;;;3.23;2.70;;;;;;;;;;10345484;28;20517;-86
2023/01/23 17:33:01;;;;;;;3.63;2.42;;;;;;;;;;10337019;28;20869;-87
2023/01/23 17:38:05;;;;;;;3.35;2.47;;;;;;;;;;10331535;28;20179;-86
2023/01/23 17:43:24;;;;;;;2.42;1.92;;;;;;;;;;10341235;28;20054;-87
2023/01/23 17:48:37;;;;;;;3.45;2.40;;;;;;;;;;10336844;28;20096;-87
2023/01/23 17:53:42;;;;;;;2.70;1.80;;;;;;;;;;10341096;28;20064;-86
2023/01/23 17:58:46;;;;;;;3.38;2.47;;;;;;;;;;10326912;28;20050;-87
2023/01/23 18:03:51;;;;;;;3.67;3.08;;;;;;;;;;10363322;28;20085;-87
2023/01/23 18:08:55;;;;;;;4.65;3.10;;;;;;;;;;10336456;28;20100;-87
2023/01/23 18:14:34;;;;;;;5.85;3.00;;;;;;;;;;10334949;28;20133;-88
2023/01/23 18:19:44;;;;;;;4.85;3.08;;;;;;;;;;10336142;28;20129;-87
2023/01/23 18:24:51;;;;;;;4.15;2.85;;;;;;;;;;10345270;28;20429;-87
2023/01/23 18:30:19;;;;;;;4.90;3.10;;;;;;;;;;10316369;28;20060;-86
2023/01/23 18:35:34;;;;;;;3.50;2.75;;;;;;;;;;10352889;28;20050;-84
2023/01/23 18:40:59;;;;;;;3.97;2.90;;;;;;;;;;10356116;28;20042;-86
2023/01/23 18:46:03;;;;;;;4.28;3.25;;;;;;;;;;10346192;28;20245;-84
2023/01/23 18:51:20;;;;;;;4.00;2.70;;;;;;;;;;10354622;28;20137;-84
2023/01/23 18:56:43;;;;;;;3.78;2.60;;;;;;;;;;10355261;28;20073;-84
2023/01/23 19:01:52;;;;;;;3.92;2.45;;;;;;;;;;10340668;28;20061;-83
2023/01/23 19:06:58;;;;;;;4.90;3.38;;;;;;;;;;10347650;28;20050;-82
2023/01/23 19:12:20;;;;;;;3.85;2.78;;;;;;;;;;10350977;28;20524;-86
2023/01/23 19:17:39;;;;;;;3.22;2.50;;;;;;;;;;10368205;28;20050;-86
2023/01/23 19:23:15;;;;;;;4.25;2.30;;;;;;;;;;10339449;23;20066;-80
2023/01/23 19:28:39;;;;;;;4.32;2.95;;;;;;;;;;10319915;28;20093;-79
2023/01/23 19:33:43;;;;;;;3.78;2.85;;;;;;;;;;10300002;28;20133;-79
2023/01/23 19:38:48;;;;;;;3.85;2.78;;;;;;;;;;10280460;28;20042;-79
2023/01/23 19:44:15;;;;;;;3.77;2.80;;;;;;;;;;10277531;28;20053;-78
2023/01/23 20:02:57;;;;;;;5.88;3.97;;;;;;;;;;10341889;23;20437;-82
2023/01/23 20:08:00;;;;;;;4.18;2.75;;;;;;;;;;10347700;28;20072;-81
2023/01/23 20:13:04;;;;;;;4.82;3.20;;;;;;;;;;10332080;28;20161;-83
2023/01/23 20:18:10;;;;;;;3.40;2.47;;;;;;;;;;10361764;28;20096;-83
2023/01/23 20:23:13;;;;;;;7.75;4.72;;;;;;;;;;10359316;28;20062;-82
2023/01/23 20:28:17;;;;;;;6.40;4.40;;;;;;;;;;10325601;28;20453;-82
2023/01/23 20:33:22;;;;;;;4.30;2.95;;;;;;;;;;10323607;28;20081;-82
2023/01/23 20:38:26;;;;;;;3.42;2.45;;;;;;;;;;10324542;28;20055;-82
2023/01/23 20:43:29;;;;;;;4.00;3.10;;;;;;;;;;10332565;28;20149;-83
2023/01/23 20:48:49;;;;;;;4.07;2.92;;;;;;;;;;10364176;28;20062;-82
2023/01/23 20:53:52;;;;;;;3.55;2.72;;;;;;;;;;10326261;28;20065;-82
2023/01/23 21:04:25;;;;;;;4.87;3.50;;;;;;;;;;10331902;28;20413;-83
2023/01/23 21:09:28;;;;;;;4.28;2.80;;;;;;;;;;10335061;28;20327;-83
2023/01/23 21:14:32;;;;;;;4.13;3.25;;;;;;;;;;10335026;28;20071;-82
2023/01/23 21:19:51;;;;;;;4.50;2.97;;;;;;;;;;10349290;28;20030;-82
2023/01/23 21:24:55;;;;;;;5.18;3.42;;;;;;;;;;10327711;28;20520;-81
2023/01/23 21:29:58;;;;;;;4.15;2.88;;;;;;;;;;10345758;28;20187;-82
2023/01/23 21:35:03;;;;;;;3.53;2.80;;;;;;;;;;10381336;28;20153;-83
2023/01/23 21:40:09;;;;;;;4.47;2.72;;;;;;;;;;10372500;28;20609;-82
2023/01/23 21:45:17;;;;;;;3.80;3.03;;;;;;;;;;10372777;28;20527;-84
2023/01/23 21:50:22;;;;;;;3.72;2.60;;;;;;;;;;10361429;28;20619;-84
2023/01/23 21:55:28;;;;;;;3.13;2.40;;;;;;;;;;10362479;28;20060;-85
2023/01/23 22:06:14;;;;;;;3.78;2.88;;;;;;;;;;10374001;28;20045;-83
2023/01/23 22:11:18;;;;;;;3.85;2.78;;;;;;;;;;10369938;28;20070;-84
2023/01/23 22:16:21;;;;;;;3.20;2.30;;;;;;;;;;10369445;28;20544;-82
2023/01/23 22:21:35;;;;;;;2.90;2.30;;;;;;;;;;10365850;28;20567;-84
2023/01/23 22:26:39;;;;;;;2.72;2.33;;;;;;;;;;10381086;28;20543;-90
2023/01/23 22:31:42;;;;;;;2.67;2.10;;;;;;;;;;10378140;28;20059;-86
2023/01/23 22:36:48;;;;;;;3.03;2.35;;;;;;;;;;10387371;28;20420;-89
2023/01/23 22:41:56;;;;;;;4.27;2.80;;;;;;;;;;10368734;28;20073;-85
2023/01/23 22:47:00;;;;;;;4.40;3.17;;;;;;;;;;10363786;28;20264;-85
2023/01/23 22:52:05;;;;;;;3.58;2.63;;;;;;;;;;10369184;28;20045;-81
2023/01/23 22:57:25;;;;;;;3.08;2.58;;;;;;;;;;10381427;28;20149;-83
2023/01/23 23:02:30;;;;;;;3.92;2.72;;;;;;;;;;10358927;28;20437;-85
2023/01/23 23:07:36;;;;;;;5.95;3.60;;;;;;;;;;10342488;28;20234;-84
2023/01/23 23:12:39;;;;;;;4.23;3.10;;;;;;;;;;10349561;28;20050;-84
2023/01/23 23:17:47;;;;;;;2.90;2.33;;;;;;;;;;10352156;28;20768;-84
2023/01/23 23:22:52;;;;;;;3.28;2.55;;;;;;;;;;10362522;28;20145;-85
2023/01/23 23:27:56;;;;;;;2.90;2.13;;;;;;;;;;10363779;28;20076;-85
2023/01/23 23:32:59;;;;;;;3.50;2.13;;;;;;;;;;10368369;28;20059;-86
2023/01/23 23:38:04;;;;;;;3.00;2.10;;;;;;;;;;10372786;28;20381;-86
2023/01/23 23:43:08;;;;;;;4.25;2.45;;;;;;;;;;10352329;28;20535;-86
2023/01/23 23:48:12;;;;;;;2.72;2.28;;;;;;;;;;10374267;28;20056;-82
2023/01/23 23:53:17;;;;;;;3.00;2.42;;;;;;;;;;10368397;28;20501;-83
2023/01/23 23:58:22;;;;;;;2.33;1.70;;;;;;;;;;10380288;28;20099;-84
